Time;durP1;ratioP1;P1;durP2;ratioP2;P2;SDS_P1;SDS_P2;PMS_P1;PMS_P2;Temp;Humidity;BMP_temperature;BMP_pressure;BME280_temperature;BME280_humidity;BME280_pressure;Samples;Min_cycle;Max_cycle;Signal;HPM_P1;HPM_P2
2022/08/05 00:00:13;;;;;;;4.45;3.72;;;;;;;21.67;53.65;99595.59;1719318;82;21057;-60
2022/08/05 00:02:42;;;;;;;5.95;3.95;;;;;;;21.64;53.69;99594.56;1721090;81;20904;-60
2022/08/05 00:05:08;;;;;;;3.95;3.58;;;;;;;21.63;53.76;99586.75;1719242;82;20929;-60
2022/08/05 00:07:35;;;;;;;6.97;4.10;;;;;;;21.61;53.72;99590.05;1717216;81;20932;-60
2022/08/05 00:10:03;;;;;;;4.65;3.55;;;;;;;21.58;53.80;99588.52;1714493;82;21491;-61
2022/08/05 00:12:30;;;;;;;4.40;3.77;;;;;;;21.55;53.85;99584.82;1721013;81;21130;-62
2022/08/05 00:14:57;;;;;;;5.78;3.55;;;;;;;21.55;53.85;99583.99;1714606;83;21005;-60
2022/08/05 00:17:23;;;;;;;4.83;3.60;;;;;;;21.53;53.89;99581.47;1710507;82;20955;-61
2022/08/05 00:19:50;;;;;;;5.85;3.85;;;;;;;21.51;54.00;99572.83;1717074;82;20912;-61
2022/08/05 00:22:17;;;;;;;5.33;3.25;;;;;;;21.52;54.02;99577.64;1718076;82;20958;-60
2022/08/05 00:24:44;;;;;;;4.28;3.87;;;;;;;21.50;54.01;99575.12;1725721;81;21056;-60
2022/08/05 00:31:09;;;;;;;6.40;3.98;;;;;;;21.45;54.08;99579.56;1722337;81;20921;-60
2022/08/05 00:33:35;;;;;;;3.60;3.30;;;;;;;21.44;54.17;99571.72;1732999;81;20986;-60
2022/08/05 00:36:03;;;;;;;6.62;3.92;;;;;;;21.44;54.16;99566.41;1703396;82;20892;-60
2022/08/05 00:38:29;;;;;;;6.30;3.12;;;;;;;21.44;54.18;99566.41;1716703;82;21017;-60
2022/08/05 00:40:58;;;;;;;3.85;3.45;;;;;;;21.43;54.21;99562.09;1720970;82;20898;-60
2022/08/05 00:43:24;;;;;;;7.30;3.75;;;;;;;21.43;54.27;99563.42;1719540;82;20938;-60
2022/08/05 00:45:51;;;;;;;4.58;3.60;;;;;;;21.44;54.25;99557.12;1718589;82;20963;-60
2022/08/05 00:48:21;;;;;;;5.97;3.52;;;;;;;21.48;54.29;99557.16;1714447;82;20958;-60
2022/08/05 00:50:51;;;;;;;7.53;3.60;;;;;;;21.49;54.27;99553.53;1714109;81;21038;-61
2022/08/05 00:53:21;;;;;;;6.20;3.58;;;;;;;21.53;54.30;99552.24;1718606;82;21544;-60
2022/08/05 00:55:49;;;;;;;3.60;3.30;;;;;;;21.53;54.28;99554.90;1721362;82;21904;-61
2022/08/05 00:58:17;;;;;;;7.80;3.77;;;;;;;21.53;54.26;99553.58;1716112;82;21026;-60
2022/08/05 01:00:44;;;;;;;4.60;3.70;;;;;;;21.54;54.29;99553.94;1721618;82;22191;-61
2022/08/05 01:03:11;;;;;;;;;;;;;;;21.54;54.28;99545.97;1719501;82;21062;-61
2022/08/05 01:05:38;;;;;;;3.55;3.25;;;;;;;21.53;54.30;99546.94;1711897;82;20493;-61
2022/08/05 01:08:05;;;;;;;5.30;2.95;;;;;;;21.53;54.36;99541.62;1721164;82;20947;-60
2022/08/05 01:10:52;;;;;;;3.77;3.20;;;;;;;21.55;54.32;99550.28;1715135;82;20962;-61
2022/08/05 01:13:45;;;;;;;9.80;3.30;;;;;;;21.57;54.36;99540.36;1715151;82;20952;-60
2022/08/05 01:16:44;;;;;;;3.65;3.20;;;;;;;21.59;54.27;99541.05;1715853;82;21874;-60
2022/08/05 01:19:31;;;;;;;4.83;3.20;;;;;;;21.60;54.30;99528.11;1715416;82;21573;-61
2022/08/05 01:22:26;;;;;;;4.97;3.00;;;;;;;21.63;54.24;99535.78;1720027;82;20957;-60
2022/08/05 01:25:39;;;;;;;3.40;3.10;;;;;;;21.60;54.19;99534.75;1715639;82;21725;-60
2022/08/05 01:28:26;;;;;;;4.62;3.05;;;;;;;21.59;54.18;99530.42;1717073;82;20976;-60
2022/08/05 01:31:10;;;;;;;6.05;3.12;;;;;;;21.58;54.13;99531.89;1714039;82;21207;-60
2022/08/05 01:33:48;;;;;;;5.70;3.45;;;;;;;21.56;54.14;99537.34;1702492;82;20932;-60
2022/08/05 01:36:18;;;;;;;3.85;3.25;;;;;;;21.55;54.07;99537.00;1718194;82;20928;-61
2022/08/05 01:38:47;;;;;;;9.70;3.52;;;;;;;21.51;53.98;99522.36;1712998;82;21496;-60
2022/08/05 01:41:17;;;;;;;3.30;3.08;;;;;;;21.47;53.98;99528.93;1714021;82;21856;-60
2022/08/05 01:43:46;;;;;;;4.30;3.15;;;;;;;21.46;54.01;99523.28;1713040;82;21094;-60
2022/08/05 01:46:13;;;;;;;6.60;3.17;;;;;;;21.45;54.00;99528.23;1713986;82;21512;-61
2022/08/05 01:48:41;;;;;;;4.72;2.95;;;;;;;21.44;53.97;99527.90;1723133;82;20918;-61
2022/08/05 01:51:09;;;;;;;4.15;3.17;;;;;;;21.43;53.92;99527.56;1714128;82;21491;-60
2022/08/05 01:53:37;;;;;;;5.30;2.92;;;;;;;21.40;53.87;99531.35;1723888;82;20926;-61
2022/08/05 01:56:05;;;;;;;4.58;3.30;;;;;;;21.36;53.88;99534.41;1720032;82;21074;-61
2022/08/05 01:58:34;;;;;;;8.55;3.47;;;;;;;21.36;53.88;99534.41;1728108;82;20966;-61
2022/08/05 02:01:03;;;;;;;4.65;3.27;;;;;;;21.32;53.83;99531.70;1689514;82;20946;-60
2022/08/05 02:03:44;;;;;;;6.35;3.20;;;;;;;21.26;53.85;99529.61;1714056;82;20954;-60
2022/08/05 02:06:11;;;;;;;4.97;3.08;;;;;;;21.20;53.81;99535.87;1713889;82;20926;-60
2022/08/05 02:08:38;;;;;;;3.12;2.83;;;;;;;21.13;53.86;99529.45;1715606;82;21108;-61
2022/08/05 02:11:12;;;;;;;4.28;3.87;;;;;;;21.06;53.85;99533.69;1717238;82;21024;-61
2022/08/05 02:14:02;;;;;;;6.22;4.15;;;;;;;20.99;53.94;99523.28;1713785;82;21454;-60
2022/08/05 02:16:43;;;;;;;5.65;3.25;;;;;;;20.94;53.96;99521.55;1712752;82;21001;-61
2022/08/05 02:19:35;;;;;;;3.87;3.27;;;;;;;20.89;53.99;99517.16;1721913;82;20936;-61
2022/08/05 02:22:16;;;;;;;3.52;3.17;;;;;;;20.86;54.03;99513.46;1712812;82;21900;-61
2022/08/05 02:24:47;;;;;;;4.97;3.17;;;;;;;20.81;54.08;99515.70;1708686;82;20999;-60
2022/08/05 02:27:15;;;;;;;4.72;3.80;;;;;;;20.77;54.16;99512.02;1718426;82;20875;-61
2022/08/05 02:29:44;;;;;;;4.85;3.67;;;;;;;20.76;54.12;99514.83;1716236;82;20952;-61
2022/08/05 02:32:15;;;;;;;3.60;3.30;;;;;;;20.71;54.16;99511.27;1711184;82;20960;-61
2022/08/05 02:34:44;;;;;;;5.83;3.50;;;;;;;20.68;54.20;99510.22;1715029;82;21055;-60
2022/08/05 02:37:12;;;;;;;7.25;3.35;;;;;;;20.64;54.26;99512.83;1713064;82;20880;-60
2022/08/05 02:39:39;;;;;;;5.30;3.67;;;;;;;20.61;54.31;99510.43;1717698;82;20922;-60
2022/08/05 02:42:08;;;;;;;4.53;3.60;;;;;;;20.59;54.38;99515.06;1690390;82;20910;-60
2022/08/05 02:44:37;;;;;;;5.40;3.52;;;;;;;20.57;54.38;99510.38;1718098;81;20992;-60
2022/08/05 02:47:08;;;;;;;4.17;3.65;;;;;;;20.53;54.42;99514.31;1718459;82;21494;-60
2022/08/05 02:49:38;;;;;;;3.55;3.25;;;;;;;20.48;54.45;99508.05;1714687;82;22108;-60
2022/08/05 02:52:10;;;;;;;4.65;3.20;;;;;;;20.44;54.44;99511.13;1688995;84;20993;-60
2022/08/05 02:54:40;;;;;;;6.08;3.42;;;;;;;20.40;54.58;99511.06;1716515;82;21454;-60
2022/08/05 02:57:11;;;;;;;5.08;3.58;;;;;;;20.33;54.58;99507.66;1713678;82;20926;-60
2022/08/05 02:59:42;;;;;;;3.25;2.98;;;;;;;20.28;54.61;99513.86;1724262;82;20971;-60
2022/08/05 03:02:12;;;;;;;5.55;3.22;;;;;;;20.23;54.68;99514.77;1718721;82;20941;-60
2022/08/05 03:04:41;;;;;;;4.47;3.08;;;;;;;20.20;54.78;99515.05;1713168;82;20938;-61
2022/08/05 03:07:09;;;;;;;6.47;3.52;;;;;;;20.13;54.76;99514.74;1715226;82;20916;-60
2022/08/05 03:09:36;;;;;;;4.67;3.58;;;;;;;20.10;54.86;99508.89;1717265;82;21510;-61
2022/08/05 03:12:05;;;;;;;5.58;3.02;;;;;;;20.08;54.97;99513.48;1716796;82;21264;-60
2022/08/05 03:14:31;;;;;;;4.95;3.47;;;;;;;20.04;55.01;99514.75;1679328;83;20968;-60
2022/08/05 03:16:58;;;;;;;11.75;4.10;;;;;;;20.02;55.04;99512.72;1696222;83;21528;-61
2022/08/05 03:19:25;;;;;;;7.10;3.65;;;;;;;20.01;55.15;99515.03;1689684;83;20872;-61
2022/08/05 03:21:51;;;;;;;9.93;3.90;;;;;;;20.00;55.23;99516.02;1696538;83;20965;-61
2022/08/05 03:24:20;;;;;;;4.78;3.77;;;;;;;20.01;55.26;99516.35;1690255;83;21460;-60
2022/08/05 03:26:47;;;;;;;12.75;4.17;;;;;;;20.02;55.29;99524.64;1687953;83;21002;-61
2022/08/05 03:29:14;;;;;;;5.65;3.83;;;;;;;20.03;55.39;99523.69;1687893;83;20907;-60
2022/08/05 03:31:41;;;;;;;10.08;3.95;;;;;;;20.16;55.59;99526.88;1691530;83;21051;-60
2022/08/05 03:34:08;;;;;;;6.28;3.25;;;;;;;20.62;55.79;99520.08;1689888;83;23337;-60
2022/08/05 03:36:35;;;;;;;8.10;3.27;;;;;;;21.26;55.71;99525.62;1693475;83;21096;-61
2022/08/05 03:39:08;;;;;;;7.30;3.40;;;;;;;21.86;55.55;99518.92;1691638;83;25320;-61
2022/08/05 03:41:34;;;;;;;7.83;3.30;;;;;;;22.45;55.24;99520.67;1692607;83;20868;-60
2022/08/05 03:44:01;;;;;;;4.67;3.35;;;;;;;23.00;54.94;99519.11;1703864;82;21515;-60
2022/08/05 03:46:28;;;;;;;7.33;3.77;;;;;;;23.54;54.89;99515.38;1719157;82;25417;-61
2022/08/05 03:48:55;;;;;;;7.45;3.60;;;;;;;24.05;54.38;99510.88;1725232;82;21026;-61
2022/08/05 03:51:38;;;;;;;8.15;3.20;;;;;;;24.58;54.33;99514.11;1708028;82;20992;-61
2022/08/05 03:54:24;;;;;;;5.42;3.08;;;;;;;25.11;54.08;99509.51;1712408;82;21478;-61
2022/08/05 03:56:52;;;;;;;5.45;3.12;;;;;;;25.70;53.42;99506.97;1681556;83;21062;-61
2022/08/05 03:59:26;;;;;;;7.83;3.40;;;;;;;26.34;52.97;99500.89;1670580;85;20951;-62
2022/08/05 04:01:55;;;;;;;9.00;3.55;;;;;;;26.71;52.41;99489.88;1671688;84;21079;-62
2022/08/05 04:04:24;;;;;;;10.35;3.77;;;;;;;27.14;51.92;99492.77;1700626;83;21393;-61
2022/08/05 04:06:51;;;;;;;4.35;2.90;;;;;;;27.71;51.46;99496.11;1692234;83;21556;-61
2022/08/05 04:09:19;;;;;;;8.18;3.00;;;;;;;28.19;51.15;99490.24;1725845;83;20972;-62
2022/08/05 04:11:46;;;;;;;5.55;2.85;;;;;;;28.64;50.44;99494.37;1694015;84;20960;-61
2022/08/05 04:14:12;;;;;;;12.23;2.83;;;;;;;29.12;49.79;99495.84;1699576;82;21669;-61
2022/08/05 04:16:39;;;;;;;8.38;2.85;;;;;;;29.48;49.49;99494.78;1724165;81;20952;-62
2022/08/05 04:19:06;;;;;;;8.45;2.90;;;;;;;29.98;48.88;99490.00;1727649;81;20909;-62
2022/08/05 04:21:33;;;;;;;9.33;2.98;;;;;;;30.38;48.33;99498.16;1683371;82;21488;-61
2022/08/05 04:23:59;;;;;;;11.38;2.85;;;;;;;30.69;47.58;99496.70;1700924;82;21017;-62
2022/08/05 04:26:26;;;;;;;6.70;3.05;;;;;;;30.97;47.09;99491.91;1703943;82;20964;-62
2022/08/05 04:28:53;;;;;;;2.83;2.47;;;;;;;31.31;46.55;99487.25;1702554;82;20974;-62
2022/08/05 04:31:20;;;;;;;4.00;2.37;;;;;;;31.65;46.03;99486.64;1734545;81;20891;-62
2022/08/05 04:33:47;;;;;;;6.58;2.50;;;;;;;31.98;45.27;99488.33;1730165;81;20980;-62
2022/08/05 04:36:14;;;;;;;5.75;2.20;;;;;;;32.24;44.98;99485.47;1725778;82;20950;-62
2022/08/05 04:38:44;;;;;;;4.80;2.40;;;;;;;32.43;44.13;99490.38;1722777;82;21815;-62
2022/08/05 04:41:11;;;;;;;2.80;2.35;;;;;;;32.82;43.92;99484.88;1724757;82;21430;-61
2022/08/05 04:43:38;;;;;;;6.25;2.50;;;;;;;33.15;43.38;99488.08;1723026;82;20965;-61
2022/08/05 04:46:05;;;;;;;10.30;2.40;;;;;;;33.31;42.48;99485.84;1723701;82;20950;-61
2022/08/05 04:48:32;;;;;;;21.25;3.25;;;;;;;33.44;41.92;99488.36;1720368;82;20995;-61
2022/08/05 04:50:59;;;;;;;9.95;2.58;;;;;;;33.80;41.21;99470.43;1726333;82;21135;-61
2022/08/05 04:53:26;;;;;;;6.20;2.33;;;;;;;33.80;41.21;99470.43;1721864;82;20981;-61
2022/08/05 04:55:53;;;;;;;7.25;2.30;;;;;;;33.89;40.64;99466.36;1720232;82;21453;-61
2022/08/05 04:58:20;;;;;;;8.93;2.40;;;;;;;34.19;40.13;99479.05;1721660;82;20969;-61
2022/08/05 05:00:47;;;;;;;5.70;2.02;;;;;;;34.31;39.50;99477.17;1722983;82;21537;-61
2022/08/05 05:03:14;;;;;;;5.15;2.30;;;;;;;34.19;38.92;99473.63;1726712;82;21057;-62
2022/08/05 05:05:41;;;;;;;6.40;2.80;;;;;;;33.95;38.59;99480.33;1721908;82;20958;-60
2022/08/05 05:08:09;;;;;;;5.78;2.22;;;;;;;33.75;38.12;99483.83;1722972;82;20951;-60
2022/08/05 05:10:45;;;;;;;8.63;2.67;;;;;;;33.78;37.92;99486.10;1720262;82;21541;-60
2022/08/05 05:13:14;;;;;;;8.95;2.52;;;;;;;33.94;37.71;99481.36;1721016;82;20934;-61
2022/08/05 05:15:42;;;;;;;8.28;2.70;;;;;;;33.96;37.13;99480.61;1721155;82;22183;-61
2022/08/05 05:18:14;;;;;;;12.63;2.42;;;;;;;34.02;37.04;99479.68;1717011;82;21552;-61
2022/08/05 05:20:43;;;;;;;8.25;2.20;;;;;;;34.09;36.65;99484.52;1722626;82;20988;-61
2022/08/05 05:23:12;;;;;;;7.70;2.35;;;;;;;34.22;36.23;99484.00;1716256;82;20971;-61
2022/08/05 05:25:41;;;;;;;4.83;2.05;;;;;;;34.33;35.94;99480.48;1717065;82;20929;-61
2022/08/05 05:28:09;;;;;;;2.70;1.80;;;;;;;34.46;35.75;99482.98;1721812;81;20999;-61
2022/08/05 05:30:38;;;;;;;4.67;2.17;;;;;;;34.68;35.49;99483.80;1718339;82;21012;-61
2022/08/05 05:33:07;;;;;;;5.00;2.33;;;;;;;34.83;35.34;99482.77;1724475;82;20878;-60
2022/08/05 05:35:36;;;;;;;5.22;2.08;;;;;;;34.97;34.84;99473.31;1717505;82;20961;-61
2022/08/05 05:38:05;;;;;;;2.70;1.67;;;;;;;34.97;34.65;99473.31;1716202;82;20951;-61
2022/08/05 05:40:33;;;;;;;7.15;2.20;;;;;;;34.94;34.17;99479.22;1720763;81;21085;-61
2022/08/05 05:43:00;;;;;;;4.47;2.40;;;;;;;34.79;33.95;99476.19;1718930;82;20975;-61
2022/08/05 05:45:26;;;;;;;7.00;2.42;;;;;;;34.71;33.78;99479.25;1717864;82;21424;-61
2022/08/05 05:47:53;;;;;;;4.55;2.00;;;;;;;34.71;33.67;99473.83;1718503;81;20920;-60
2022/08/05 05:50:20;;;;;;;11.80;2.70;;;;;;;34.69;33.26;99478.66;1713631;82;21038;-61
2022/08/05 05:52:47;;;;;;;8.10;2.17;;;;;;;34.58;33.41;99479.48;1722033;82;21836;-61
2022/08/05 05:55:16;;;;;;;15.00;2.87;;;;;;;34.54;33.18;99474.50;1717604;82;21442;-61
2022/08/05 05:57:45;;;;;;;7.15;2.00;;;;;;;34.49;33.16;99478.44;1715715;82;20935;-60
2022/08/05 06:00:16;;;;;;;13.40;3.10;;;;;;;34.61;32.82;99479.00;1717922;82;21932;-61
2022/08/05 06:02:45;;;;;;;7.55;2.25;;;;;;;34.75;33.00;99473.63;1715948;82;20889;-60
2022/08/05 06:05:14;;;;;;;3.80;1.92;;;;;;;35.06;32.80;99475.70;1721143;82;21142;-61
2022/08/05 06:07:42;;;;;;;8.83;2.45;;;;;;;35.37;32.55;99477.16;1713176;82;20950;-61
2022/08/05 06:10:10;;;;;;;8.60;1.90;;;;;;;35.57;32.33;99471.33;1715005;82;20883;-61
2022/08/05 06:12:38;;;;;;;7.97;2.30;;;;;;;35.78;32.08;99467.94;1716996;82;20905;-61
2022/08/05 06:15:06;;;;;;;7.95;2.05;;;;;;;35.59;32.01;99474.63;1711386;82;20914;-60
2022/08/05 06:17:34;;;;;;;6.87;1.75;;;;;;;35.71;31.75;99469.99;1712280;81;21052;-61
2022/08/05 06:20:01;;;;;;;7.28;1.52;;;;;;;35.68;31.57;99467.73;1706904;82;21004;-61
2022/08/05 06:22:32;;;;;;;4.20;1.95;;;;;;;35.66;31.35;99461.75;1708339;82;20943;-61
2022/08/05 06:24:59;;;;;;;4.58;1.77;;;;;;;35.39;30.96;99464.99;1710830;82;20947;-61
2022/08/05 06:27:26;;;;;;;4.62;1.60;;;;;;;35.12;31.00;99461.17;1708559;82;21437;-61
2022/08/05 06:29:52;;;;;;;8.83;1.95;;;;;;;34.94;30.78;99464.30;1709578;81;21066;-61
2022/08/05 06:32:19;;;;;;;6.95;2.65;;;;;;;34.88;30.97;99463.91;1707067;81;21019;-61
2022/08/05 06:34:46;;;;;;;5.35;2.17;;;;;;;34.95;31.00;99461.91;1708083;82;21540;-60
2022/08/05 06:37:12;;;;;;;8.83;2.10;;;;;;;34.80;30.65;99450.70;1708964;82;20951;-60
2022/08/05 06:39:39;;;;;;;5.70;2.02;;;;;;;34.36;30.64;99463.75;1708700;81;20975;-60
2022/08/05 06:42:07;;;;;;;4.92;2.40;;;;;;;33.99;30.67;99455.77;1711604;82;21895;-60
2022/08/05 06:44:36;;;;;;;3.92;2.00;;;;;;;33.71;30.69;99455.04;1712919;82;20865;-61
2022/08/05 06:47:04;;;;;;;9.48;2.80;;;;;;;33.42;30.58;99455.31;1719791;82;20954;-61
2022/08/05 06:49:34;;;;;;;5.15;2.52;;;;;;;33.01;30.82;99454.13;1714558;82;21437;-62
2022/08/05 06:52:01;;;;;;;7.08;2.62;;;;;;;33.03;31.00;99449.33;1721295;81;20927;-61
2022/08/05 06:54:28;;;;;;;6.78;2.30;;;;;;;33.14;31.20;99447.22;1717911;82;21098;-61
2022/08/05 06:56:55;;;;;;;5.83;2.67;;;;;;;33.45;31.36;99443.20;1722351;82;20907;-62
2022/08/05 06:59:24;;;;;;;5.42;2.20;;;;;;;33.46;31.23;99442.96;1710750;82;20924;-61
2022/08/05 07:01:50;;;;;;;10.18;2.02;;;;;;;33.43;31.16;99443.42;1714114;82;20950;-61
2022/08/05 07:04:17;;;;;;;4.97;2.00;;;;;;;33.43;31.31;99443.42;1716316;81;21642;-59
2022/08/05 07:06:44;;;;;;;5.33;2.15;;;;;;;33.49;31.35;99445.20;1718909;81;21018;-59
2022/08/05 07:09:11;;;;;;;3.00;2.12;;;;;;;33.45;31.36;99444.03;1718229;82;20903;-59
2022/08/05 07:11:37;;;;;;;5.65;2.55;;;;;;;33.65;31.60;99436.48;1719410;82;20955;-59
2022/08/05 07:16:49;;;;;;;4.17;1.98;;;;;;;33.87;31.27;99435.97;1717972;82;20991;-59
2022/08/05 07:19:20;;;;;;;12.45;3.22;;;;;;;33.73;31.46;99437.23;1716942;82;21093;-58
2022/08/05 07:21:50;;;;;;;5.90;2.00;;;;;;;33.63;31.30;99435.88;1715375;82;20943;-58
2022/08/05 07:24:17;;;;;;;5.65;2.00;;;;;;;33.21;31.04;99433.07;1711984;81;21401;-59
2022/08/05 07:26:45;;;;;;;8.63;2.58;;;;;;;32.41;31.32;99424.95;1690005;84;20953;-59
2022/08/05 07:29:12;;;;;;;5.00;2.55;;;;;;;32.41;31.32;99424.95;1689242;84;20920;-59
2022/08/05 07:31:40;;;;;;;3.75;2.25;;;;;;;32.41;31.82;99420.91;1697894;83;21924;-58
2022/08/05 07:34:07;;;;;;;7.17;2.30;;;;;;;32.41;31.89;99424.13;1688284;83;20943;-58
2022/08/05 07:36:34;;;;;;;4.67;3.05;;;;;;;32.38;32.02;99424.55;1689618;83;20953;-58
2022/08/05 07:39:04;;;;;;;11.90;3.10;;;;;;;32.18;32.20;99422.02;1693190;83;21524;-61
2022/08/05 07:41:32;;;;;;;3.87;2.47;;;;;;;32.03;32.19;99426.41;1696449;83;20939;-61
2022/08/05 07:43:59;;;;;;;9.28;2.58;;;;;;;32.02;32.47;99426.11;1692040;83;21025;-60
2022/08/05 07:46:29;;;;;;;4.00;2.50;;;;;;;31.93;32.39;99430.11;1688493;83;20920;-60
2022/08/05 07:48:58;;;;;;;15.55;2.90;;;;;;;31.76;32.60;99430.63;1694507;83;20955;-61
2022/08/05 07:51:25;;;;;;;6.25;2.77;;;;;;;31.73;32.84;99437.78;1692333;82;21435;-61
2022/08/05 07:53:52;;;;;;;8.00;2.55;;;;;;;31.78;32.94;99431.22;1689551;82;20973;-60
2022/08/05 07:56:19;;;;;;;4.37;2.52;;;;;;;31.80;32.94;99436.41;1690014;83;21707;-61
2022/08/05 07:58:45;;;;;;;5.12;2.30;;;;;;;31.85;32.98;99442.81;1696657;83;21501;-61
2022/08/05 08:01:12;;;;;;;3.62;2.12;;;;;;;31.84;33.09;99442.48;1688716;83;20963;-61
2022/08/05 08:03:39;;;;;;;5.20;2.80;;;;;;;31.84;33.11;99441.13;1690747;83;20925;-61
2022/08/05 08:06:06;;;;;;;8.60;2.60;;;;;;;31.78;33.19;99446.06;1707578;83;21467;-60
2022/08/05 08:08:34;;;;;;;11.18;3.02;;;;;;;31.70;33.19;99447.66;1709312;82;21147;-61
2022/08/05 08:11:00;;;;;;;10.00;3.30;;;;;;;31.57;33.34;99451.28;1723770;81;21724;-61
2022/08/05 08:13:27;;;;;;;8.73;2.72;;;;;;;31.55;33.44;99448.48;1720501;82;21937;-61
2022/08/05 08:15:54;;;;;;;5.92;2.65;;;;;;;31.54;33.50;99449.55;1715829;82;20887;-61
2022/08/05 08:18:22;;;;;;;8.73;3.15;;;;;;;31.69;33.67;99441.97;1718652;82;20930;-61
2022/08/05 08:20:52;;;;;;;19.37;3.40;;;;;;;31.84;33.65;99434.39;1715763;81;21751;-61
2022/08/05 08:23:18;;;;;;;7.17;2.10;;;;;;;31.77;33.60;99437.67;1718836;81;20951;-61
2022/08/05 08:25:45;;;;;;;13.18;2.67;;;;;;;31.75;33.57;99437.05;1723985;81;21500;-61
2022/08/05 08:28:13;;;;;;;3.92;2.05;;;;;;;31.58;33.56;99435.91;1712916;82;21557;-61
2022/08/05 08:30:40;;;;;;;6.40;2.75;;;;;;;31.48;33.61;99428.30;1717962;81;20982;-61
2022/08/05 08:33:11;;;;;;;6.12;2.50;;;;;;;31.45;33.57;99430.05;1719801;82;21049;-60
2022/08/05 08:35:39;;;;;;;10.55;2.40;;;;;;;31.34;33.75;99427.50;1717844;81;20965;-61
2022/08/05 08:38:09;;;;;;;4.60;2.70;;;;;;;31.51;33.92;99427.02;1714976;81;21052;-61
2022/08/05 08:40:37;;;;;;;7.15;2.58;;;;;;;31.74;33.80;99424.61;1718900;81;20885;-59
2022/08/05 08:43:05;;;;;;;8.90;2.37;;;;;;;31.67;33.68;99429.20;1718140;82;21485;-61
2022/08/05 08:45:35;;;;;;;3.77;2.80;;;;;;;31.60;33.75;99439.23;1719032;81;21050;-61
2022/08/05 08:48:04;;;;;;;9.08;2.92;;;;;;;31.48;33.79;99427.45;1698599;82;20967;-61
2022/08/05 08:50:35;;;;;;;9.03;2.72;;;;;;;31.20;33.70;99426.73;1715406;82;20922;-61
2022/08/05 08:53:06;;;;;;;6.75;2.92;;;;;;;30.97;33.88;99432.60;1717598;81;21446;-61
2022/08/05 08:55:34;;;;;;;4.37;2.40;;;;;;;31.03;34.08;99433.62;1701882;82;20914;-60
2022/08/05 08:58:01;;;;;;;5.95;2.55;;;;;;;31.13;34.11;99422.41;1712696;82;22535;-60
2022/08/05 09:00:28;;;;;;;7.78;2.72;;;;;;;31.22;34.00;99417.06;1715405;82;20959;-61
2022/08/05 09:02:57;;;;;;;6.25;2.72;;;;;;;31.32;34.29;99418.80;1719845;81;21022;-61
2022/08/05 09:05:24;;;;;;;6.50;2.80;;;;;;;31.58;34.26;99418.38;1724451;81;21439;-60
2022/08/05 09:07:52;;;;;;;4.50;2.30;;;;;;;31.72;34.18;99411.84;1721078;82;21577;-60
2022/08/05 09:10:20;;;;;;;7.50;2.50;;;;;;;31.94;33.99;99411.53;1718178;82;21124;-59
2022/08/05 09:12:47;;;;;;;6.40;2.05;;;;;;;32.05;34.13;99413.52;1724687;81;21527;-60
2022/08/05 09:15:14;;;;;;;7.03;2.10;;;;;;;32.24;34.07;99407.13;1719614;82;20970;-60
2022/08/05 09:17:41;;;;;;;5.05;2.65;;;;;;;32.32;34.07;99410.91;1719271;81;20930;-61
2022/08/05 09:20:11;;;;;;;3.45;2.60;;;;;;;32.47;33.98;99404.36;1719829;82;20990;-61
2022/08/05 09:23:16;;;;;;;6.92;2.40;;;;;;;32.47;33.72;99405.70;1720748;82;21103;-60
2022/08/05 09:25:46;;;;;;;9.95;2.70;;;;;;;32.34;33.75;99397.16;1720126;82;20954;-61
2022/08/05 09:28:17;;;;;;;6.92;2.52;;;;;;;32.39;33.83;99404.61;1691789;82;21086;-61
2022/08/05 09:30:59;;;;;;;4.95;2.80;;;;;;;32.21;33.42;99398.62;1716677;81;20937;-62
2022/08/05 09:33:25;;;;;;;4.25;2.40;;;;;;;32.02;33.44;99399.11;1714774;82;20913;-61
2022/08/05 09:35:59;;;;;;;8.45;2.67;;;;;;;31.87;33.46;99396.68;1714967;81;21059;-60
2022/08/05 09:38:27;;;;;;;4.15;1.98;;;;;;;31.95;33.65;99391.58;1724931;81;21460;-59
2022/08/05 09:41:02;;;;;;;5.35;2.37;;;;;;;32.03;33.49;99392.66;1721453;82;21433;-60
2022/08/05 09:43:37;;;;;;;3.45;2.42;;;;;;;32.07;33.49;99394.70;1717794;81;20906;-59
2022/08/05 09:46:10;;;;;;;4.22;2.37;;;;;;;32.09;33.36;99389.06;1713482;81;21503;-60
2022/08/05 09:48:35;;;;;;;6.47;3.00;;;;;;;32.16;33.65;99388.50;1713309;82;21832;-61
2022/08/05 09:51:11;;;;;;;6.25;2.90;;;;;;;32.30;33.37;99385.98;1715138;81;21980;-61
2022/08/05 09:53:50;;;;;;;4.00;2.50;;;;;;;32.28;33.40;99385.36;1722451;81;20938;-61
2022/08/05 09:56:29;;;;;;;11.70;3.27;;;;;;;32.36;33.40;99373.98;1718255;82;20965;-61
2022/08/05 09:59:06;;;;;;;5.87;2.25;;;;;;;32.32;33.27;99378.48;1718457;82;20975;-61
2022/08/05 10:01:40;;;;;;;7.62;2.60;;;;;;;32.39;33.31;99378.41;1722798;81;21902;-61
2022/08/05 10:04:14;;;;;;;5.17;2.50;;;;;;;32.36;33.00;99372.64;1717941;82;20955;-61
2022/08/05 10:06:46;;;;;;;4.22;2.67;;;;;;;32.22;33.01;99371.41;1679921;83;20914;-61
2022/08/05 10:09:16;;;;;;;5.70;2.65;;;;;;;32.19;33.19;99370.50;1695587;83;20926;-61
2022/08/05 10:11:44;;;;;;;3.72;2.50;;;;;;;32.28;33.19;99364.28;1705632;83;20972;-60
2022/08/05 10:14:29;;;;;;;4.10;2.60;;;;;;;32.42;33.16;99359.58;1733198;81;21122;-61
2022/08/05 10:17:11;;;;;;;10.03;2.40;;;;;;;32.40;32.94;99363.02;1732498;81;28205;-61
2022/08/05 10:19:39;;;;;;;5.28;2.50;;;;;;;32.32;32.93;99359.58;1732675;81;20911;-61
2022/08/05 10:22:07;;;;;;;3.80;2.45;;;;;;;32.29;33.00;99362.73;1731758;81;21014;-61
2022/08/05 10:24:36;;;;;;;13.25;3.15;;;;;;;32.41;33.00;99361.98;1734807;81;20955;-61
2022/08/05 10:27:03;;;;;;;4.00;2.65;;;;;;;32.45;32.87;99355.89;1738518;81;21705;-61
2022/08/05 10:29:35;;;;;;;3.40;2.10;;;;;;;32.41;32.69;99347.13;1737142;81;21541;-61
2022/08/05 10:32:02;;;;;;;7.53;2.33;;;;;;;32.30;32.54;99348.16;1733631;81;21555;-61
2022/08/05 10:34:29;;;;;;;8.23;2.42;;;;;;;32.21;32.64;99344.60;1733035;81;20960;-61
2022/08/05 10:36:56;;;;;;;8.68;2.55;;;;;;;32.20;32.64;99344.31;1736204;81;21797;-61
2022/08/05 10:39:29;;;;;;;6.15;2.17;;;;;;;32.23;32.71;99346.03;1731633;81;21755;-61
2022/08/05 10:42:13;;;;;;;14.13;2.95;;;;;;;32.32;32.66;99346.56;1735099;81;20961;-61
2022/08/05 10:44:48;;;;;;;6.33;2.15;;;;;;;32.39;32.82;99347.88;1740207;81;20923;-61
2022/08/05 10:47:16;;;;;;;7.22;2.47;;;;;;;32.33;32.61;99343.66;1736170;81;21447;-61
2022/08/05 10:50:10;;;;;;;5.83;2.58;;;;;;;32.18;32.67;99335.59;1734941;81;20895;-61
2022/08/05 10:52:55;;;;;;;10.10;2.75;;;;;;;32.20;32.63;99344.31;1731598;81;21484;-61
2022/08/05 10:55:20;;;;;;;4.22;2.67;;;;;;;32.18;32.76;99342.34;1737459;81;21055;-61
2022/08/05 10:57:47;;;;;;;7.87;2.52;;;;;;;32.28;32.78;99338.63;1736221;81;20974;-62
2022/08/05 11:00:21;;;;;;;8.30;2.22;;;;;;;32.29;32.65;99332.16;1733246;81;20931;-61
2022/08/05 11:03:11;;;;;;;8.20;2.27;;;;;;;32.27;32.78;99341.86;1734606;81;20932;-61
2022/08/05 11:05:38;;;;;;;7.67;2.50;;;;;;;32.32;32.70;99331.21;1735554;81;21013;-61
2022/08/05 11:08:10;;;;;;;7.37;2.50;;;;;;;32.23;32.63;99325.77;1733393;81;21460;-61
2022/08/05 11:10:42;;;;;;;5.65;2.62;;;;;;;32.09;32.56;99324.25;1735812;81;20932;-61
2022/08/05 11:13:17;;;;;;;4.15;2.45;;;;;;;32.10;32.66;99318.64;1733302;81;20955;-61
2022/08/05 11:15:45;;;;;;;6.85;2.00;;;;;;;32.14;32.78;99319.02;1730000;81;21055;-61
2022/08/05 11:18:31;;;;;;;7.50;2.70;;;;;;;32.09;32.69;99310.22;1732832;81;21602;-61
2022/08/05 11:21:00;;;;;;;5.87;2.67;;;;;;;31.98;32.74;99311.48;1734012;81;21045;-61
2022/08/05 11:23:44;;;;;;;9.63;2.90;;;;;;;31.91;32.61;99314.75;1740869;81;21548;-61
2022/08/05 11:26:21;;;;;;;7.03;2.33;;;;;;;31.88;32.76;99315.48;1738409;81;21520;-61
2022/08/05 11:28:52;;;;;;;3.58;2.58;;;;;;;31.94;32.73;99310.29;1705250;82;21551;-61
2022/08/05 11:31:29;;;;;;;4.33;2.60;;;;;;;32.03;32.78;99309.77;1712040;82;21483;-61
2022/08/05 11:34:06;;;;;;;6.22;2.35;;;;;;;32.17;32.84;99313.16;1711370;82;21003;-61
2022/08/05 11:36:47;;;;;;;3.62;2.17;;;;;;;32.20;32.76;99305.97;1711482;82;20924;-61
2022/08/05 11:39:14;;;;;;;6.15;2.47;;;;;;;32.29;32.91;99311.90;1712462;82;20963;-61
2022/08/05 11:41:45;;;;;;;7.33;2.40;;;;;;;32.44;32.75;99308.32;1716402;82;20970;-61
2022/08/05 11:44:14;;;;;;;3.15;2.20;;;;;;;32.54;32.68;99302.41;1706326;82;21059;-60
2022/08/05 11:46:52;;;;;;;4.47;2.17;;;;;;;32.55;32.53;99293.27;1712161;82;21535;-61
2022/08/05 11:49:23;;;;;;;10.40;2.30;;;;;;;32.57;32.42;99291.14;1716692;82;20935;-61
2022/08/05 11:51:52;;;;;;;15.30;2.30;;;;;;;32.45;31.75;99276.72;1711192;82;21484;-61